sensor_id;sensor_type;location;lat;lon;timestamp;pressure;altitude;pressure_sealevel;temperature;humidity
10462;BME280;5278;42.656;23.374;2023-05-11T00:00:12;94858.81;;;11.36;82.60
10462;BME280;5278;42.656;23.374;2023-05-11T00:02:39;94857.91;;;11.29;82.54
10462;BME280;5278;42.656;23.374;2023-05-11T00:05:07;94821.19;;;11.01;82.82
10462;BME280;5278;42.656;23.374;2023-05-11T00:07:34;94845.72;;;11.30;82.88
10462;BME280;5278;42.656;23.374;2023-05-11T00:10:01;94856.63;;;11.25;83.11
10462;BME280;5278;42.656;23.374;2023-05-11T00:12:30;94862.00;;;11.23;83.05
10462;BME280;5278;42.656;23.374;2023-05-11T00:14:57;94858.44;;;11.25;83.48
10462;BME280;5278;42.656;23.374;2023-05-11T00:17:24;94852.44;;;11.16;83.87
10462;BME280;5278;42.656;23.374;2023-05-11T00:19:50;94860.09;;;11.17;83.99
10462;BME280;5278;42.656;23.374;2023-05-11T00:22:17;94860.44;;;11.14;84.28
10462;BME280;5278;42.656;23.374;2023-05-11T00:24:44;94859.50;;;11.07;84.81
10462;BME280;5278;42.656;23.374;2023-05-11T00:27:11;94856.59;;;11.02;84.75
10462;BME280;5278;42.656;23.374;2023-05-11T00:29:40;94864.00;;;11.13;84.25
10462;BME280;5278;42.656;23.374;2023-05-11T00:32:07;94862.06;;;11.15;84.00
10462;BME280;5278;42.656;23.374;2023-05-11T00:34:34;94867.59;;;11.12;84.39
10462;BME280;5278;42.656;23.374;2023-05-11T00:37:01;94858.81;;;11.13;84.54
10462;BME280;5278;42.656;23.374;2023-05-11T00:39:28;94868.25;;;11.14;84.10
10462;BME280;5278;42.656;23.374;2023-05-11T00:41:55;94843.66;;;10.94;84.12
10462;BME280;5278;42.656;23.374;2023-05-11T00:44:23;94862.91;;;11.08;84.16
10462;BME280;5278;42.656;23.374;2023-05-11T00:46:51;94866.84;;;11.04;84.69
10462;BME280;5278;42.656;23.374;2023-05-11T00:49:18;94860.38;;;10.92;84.64
10462;BME280;5278;42.656;23.374;2023-05-11T00:51:47;94869.94;;;10.99;84.51
10462;BME280;5278;42.656;23.374;2023-05-11T00:54:14;94867.38;;;10.91;84.85
10462;BME280;5278;42.656;23.374;2023-05-11T00:56:42;94871.97;;;10.81;84.71
10462;BME280;5278;42.656;23.374;2023-05-11T00:59:09;94866.63;;;10.83;84.36
10462;BME280;5278;42.656;23.374;2023-05-11T01:01:37;94868.09;;;10.77;84.87
10462;BME280;5278;42.656;23.374;2023-05-11T01:04:06;94866.16;;;10.71;85.04
10462;BME280;5278;42.656;23.374;2023-05-11T01:06:46;94869.13;;;10.68;84.76
10462;BME280;5278;42.656;23.374;2023-05-11T01:09:23;94870.44;;;10.64;85.63
10462;BME280;5278;42.656;23.374;2023-05-11T01:11:58;94869.31;;;10.58;86.23
10462;BME280;5278;42.656;23.374;2023-05-11T01:14:31;94863.97;;;10.60;86.45
10462;BME280;5278;42.656;23.374;2023-05-11T01:17:03;94861.69;;;10.57;86.36
10462;BME280;5278;42.656;23.374;2023-05-11T01:19:40;94864.13;;;10.58;85.91
10462;BME280;5278;42.656;23.374;2023-05-11T01:22:17;94874.00;;;10.63;86.62
10462;BME280;5278;42.656;23.374;2023-05-11T01:25:04;94872.06;;;10.65;86.16
10462;BME280;5278;42.656;23.374;2023-05-11T01:27:59;94868.34;;;10.59;86.32
10462;BME280;5278;42.656;23.374;2023-05-11T01:30:35;94858.47;;;10.47;86.11
10462;BME280;5278;42.656;23.374;2023-05-11T01:33:09;94860.25;;;10.46;87.02
10462;BME280;5278;42.656;23.374;2023-05-11T01:35:41;94805.22;;;9.96;86.88
10462;BME280;5278;42.656;23.374;2023-05-11T01:38:12;94768.47;;;9.68;87.60
10462;BME280;5278;42.656;23.374;2023-05-11T01:40:42;94871.84;;;10.35;87.52
10462;BME280;5278;42.656;23.374;2023-05-11T01:43:13;94870.84;;;10.36;87.50
10462;BME280;5278;42.656;23.374;2023-05-11T01:45:46;94868.25;;;10.45;87.43
10462;BME280;5278;42.656;23.374;2023-05-11T01:48:17;94877.00;;;10.44;87.11
10462;BME280;5278;42.656;23.374;2023-05-11T01:50:46;94822.06;;;10.08;87.31
10462;BME280;5278;42.656;23.374;2023-05-11T01:53:16;94776.22;;;9.84;86.83
10462;BME280;5278;42.656;23.374;2023-05-11T01:55:44;94878.50;;;10.30;87.40
10462;BME280;5278;42.656;23.374;2023-05-11T01:58:14;94866.03;;;10.25;87.27
10462;BME280;5278;42.656;23.374;2023-05-11T02:00:44;94886.44;;;10.28;86.98
10462;BME280;5278;42.656;23.374;2023-05-11T02:03:11;94874.31;;;10.21;87.78
10462;BME280;5278;42.656;23.374;2023-05-11T02:05:41;94886.59;;;10.27;86.57
10462;BME280;5278;42.656;23.374;2023-05-11T02:08:10;94882.56;;;10.24;85.99
10462;BME280;5278;42.656;23.374;2023-05-11T02:10:38;94865.19;;;10.33;85.08
10462;BME280;5278;42.656;23.374;2023-05-11T02:13:07;94813.50;;;9.91;85.50
10462;BME280;5278;42.656;23.374;2023-05-11T02:15:36;94867.66;;;10.18;85.66
10462;BME280;5278;42.656;23.374;2023-05-11T02:18:11;94862.94;;;10.22;85.12
10462;BME280;5278;42.656;23.374;2023-05-11T02:20:39;94876.91;;;10.21;85.00
10462;BME280;5278;42.656;23.374;2023-05-11T02:23:08;94875.41;;;10.26;84.93
10462;BME280;5278;42.656;23.374;2023-05-11T02:25:37;94868.13;;;10.30;85.00
10462;BME280;5278;42.656;23.374;2023-05-11T02:28:05;94860.34;;;10.30;84.12
10462;BME280;5278;42.656;23.374;2023-05-11T02:30:37;94858.53;;;10.30;84.85
10462;BME280;5278;42.656;23.374;2023-05-11T02:33:07;94848.03;;;10.16;84.71
10462;BME280;5278;42.656;23.374;2023-05-11T02:35:37;94872.19;;;10.24;84.39
10462;BME280;5278;42.656;23.374;2023-05-11T02:38:07;94854.16;;;10.23;84.80
10462;BME280;5278;42.656;23.374;2023-05-11T02:40:39;94784.81;;;9.84;84.70
10462;BME280;5278;42.656;23.374;2023-05-11T02:43:10;94858.19;;;10.33;84.25
10462;BME280;5278;42.656;23.374;2023-05-11T02:45:41;94835.50;;;10.11;84.06
10462;BME280;5278;42.656;23.374;2023-05-11T02:48:13;94852.22;;;10.25;83.73
10462;BME280;5278;42.656;23.374;2023-05-11T02:50:47;94868.44;;;10.27;83.61
10462;BME280;5278;42.656;23.374;2023-05-11T02:53:17;94873.66;;;10.19;84.18
10462;BME280;5278;42.656;23.374;2023-05-11T02:55:46;94878.34;;;10.15;84.27
10462;BME280;5278;42.656;23.374;2023-05-11T02:58:14;94863.09;;;10.12;84.29
10462;BME280;5278;42.656;23.374;2023-05-11T03:00:41;94859.66;;;10.12;84.53
10462;BME280;5278;42.656;23.374;2023-05-11T03:03:10;94867.00;;;10.08;85.20
10462;BME280;5278;42.656;23.374;2023-05-11T03:05:37;94766.38;;;9.47;85.58
10462;BME280;5278;42.656;23.374;2023-05-11T03:08:04;94757.81;;;8.98;85.35
10462;BME280;5278;42.656;23.374;2023-05-11T03:10:31;94856.63;;;9.92;85.28
10462;BME280;5278;42.656;23.374;2023-05-11T03:12:59;94854.69;;;9.94;85.55
10462;BME280;5278;42.656;23.374;2023-05-11T03:15:27;94854.53;;;9.96;85.54
10462;BME280;5278;42.656;23.374;2023-05-11T03:17:54;94860.53;;;9.88;86.19
10462;BME280;5278;42.656;23.374;2023-05-11T03:20:24;94864.41;;;9.92;86.01
10462;BME280;5278;42.656;23.374;2023-05-11T03:22:53;94863.13;;;9.96;85.90
10462;BME280;5278;42.656;23.374;2023-05-11T03:25:22;94858.88;;;10.03;85.09
10462;BME280;5278;42.656;23.374;2023-05-11T03:27:52;94869.91;;;9.97;86.02
10462;BME280;5278;42.656;23.374;2023-05-11T03:30:21;94867.50;;;9.96;85.62
10462;BME280;5278;42.656;23.374;2023-05-11T03:32:48;94869.59;;;9.92;85.34
10462;BME280;5278;42.656;23.374;2023-05-11T03:35:15;94845.63;;;9.82;85.15
10462;BME280;5278;42.656;23.374;2023-05-11T03:37:44;94873.34;;;9.98;85.00
10462;BME280;5278;42.656;23.374;2023-05-11T03:40:13;94870.75;;;9.89;85.25
10462;BME280;5278;42.656;23.374;2023-05-11T03:42:42;94839.31;;;9.68;85.86
10462;BME280;5278;42.656;23.374;2023-05-11T03:45:12;94855.03;;;9.83;86.12
10462;BME280;5278;42.656;23.374;2023-05-11T03:47:40;94871.56;;;9.98;86.00
10462;BME280;5278;42.656;23.374;2023-05-11T03:50:09;94871.69;;;9.97;85.78
10462;BME280;5278;42.656;23.374;2023-05-11T03:52:36;94875.78;;;9.91;86.42
10462;BME280;5278;42.656;23.374;2023-05-11T03:55:09;94867.69;;;9.86;86.66
10462;BME280;5278;42.656;23.374;2023-05-11T03:57:37;94874.16;;;9.90;86.58
10462;BME280;5278;42.656;23.374;2023-05-11T04:00:06;94879.50;;;9.88;87.44
10462;BME280;5278;42.656;23.374;2023-05-11T04:02:35;94879.66;;;9.87;87.40
10462;BME280;5278;42.656;23.374;2023-05-11T04:05:06;94884.38;;;9.83;87.65
10462;BME280;5278;42.656;23.374;2023-05-11T04:07:33;94889.41;;;9.85;88.39
10462;BME280;5278;42.656;23.374;2023-05-11T04:10:01;94859.56;;;9.57;88.23
10462;BME280;5278;42.656;23.374;2023-05-11T04:12:29;94862.16;;;9.57;89.12
10462;BME280;5278;42.656;23.374;2023-05-11T04:14:57;94886.16;;;9.83;88.51
10462;BME280;5278;42.656;23.374;2023-05-11T04:17:24;94795.09;;;9.29;89.16
10462;BME280;5278;42.656;23.374;2023-05-11T04:19:51;94889.91;;;9.80;88.87
10462;BME280;5278;42.656;23.374;2023-05-11T04:22:18;94886.16;;;9.83;89.35
10462;BME280;5278;42.656;23.374;2023-05-11T04:24:45;94893.94;;;9.83;88.96
10462;BME280;5278;42.656;23.374;2023-05-11T04:27:11;94923.47;;;9.66;89.52
10462;BME280;5278;42.656;23.374;2023-05-11T04:29:42;94884.53;;;9.74;89.96
10462;BME280;5278;42.656;23.374;2023-05-11T04:32:09;94902.38;;;9.69;90.83
10462;BME280;5278;42.656;23.374;2023-05-11T04:34:36;94893.63;;;9.70;90.85
10462;BME280;5278;42.656;23.374;2023-05-11T04:37:03;94906.94;;;9.75;90.74
10462;BME280;5278;42.656;23.374;2023-05-11T04:39:31;94876.78;;;9.66;91.09
10462;BME280;5278;42.656;23.374;2023-05-11T04:41:58;94900.44;;;9.79;91.07
10462;BME280;5278;42.656;23.374;2023-05-11T04:44:26;94900.78;;;9.76;91.74
10462;BME280;5278;42.656;23.374;2023-05-11T04:46:54;94898.66;;;9.79;91.39
10462;BME280;5278;42.656;23.374;2023-05-11T04:49:22;94898.81;;;9.78;91.07
10462;BME280;5278;42.656;23.374;2023-05-11T04:51:49;94903.38;;;9.76;91.18
10462;BME280;5278;42.656;23.374;2023-05-11T04:54:16;94898.97;;;9.76;91.84
10462;BME280;5278;42.656;23.374;2023-05-11T04:56:43;94905.47;;;9.72;91.80
10462;BME280;5278;42.656;23.374;2023-05-11T04:59:09;94904.66;;;9.80;91.81
10462;BME280;5278;42.656;23.374;2023-05-11T05:01:37;94912.28;;;9.73;92.10
10462;BME280;5278;42.656;23.374;2023-05-11T05:04:06;94913.75;;;9.76;92.63
10462;BME280;5278;42.656;23.374;2023-05-11T05:06:33;94905.78;;;9.77;92.49
10462;BME280;5278;42.656;23.374;2023-05-11T05:09:00;94898.66;;;9.71;92.07
10462;BME280;5278;42.656;23.374;2023-05-11T05:11:28;94908.72;;;9.90;91.78
10462;BME280;5278;42.656;23.374;2023-05-11T05:13:55;94922.16;;;9.94;91.43
10462;BME280;5278;42.656;23.374;2023-05-11T05:16:22;94927.03;;;10.05;90.91
10462;BME280;5278;42.656;23.374;2023-05-11T05:18:49;94927.50;;;10.09;90.61
10462;BME280;5278;42.656;23.374;2023-05-11T05:21:17;94933.34;;;10.11;90.69
10462;BME280;5278;42.656;23.374;2023-05-11T05:23:44;94923.13;;;10.09;90.46
10462;BME280;5278;42.656;23.374;2023-05-11T05:26:11;94927.81;;;10.14;90.72
10462;BME280;5278;42.656;23.374;2023-05-11T05:28:38;94925.72;;;10.09;90.70
10462;BME280;5278;42.656;23.374;2023-05-11T05:31:05;94923.94;;;10.02;91.09
10462;BME280;5278;42.656;23.374;2023-05-11T05:33:32;94926.38;;;10.03;91.51
10462;BME280;5278;42.656;23.374;2023-05-11T05:35:59;94930.94;;;10.01;91.71
10462;BME280;5278;42.656;23.374;2023-05-11T05:38:27;94926.03;;;10.14;91.33
10462;BME280;5278;42.656;23.374;2023-05-11T05:40:54;94923.94;;;10.18;90.40
10462;BME280;5278;42.656;23.374;2023-05-11T05:43:22;94932.53;;;10.34;89.12
10462;BME280;5278;42.656;23.374;2023-05-11T05:45:49;94938.38;;;10.36;89.23
10462;BME280;5278;42.656;23.374;2023-05-11T05:48:16;94933.03;;;10.30;89.03
10462;BME280;5278;42.656;23.374;2023-05-11T05:50:43;94935.78;;;10.28;89.24
10462;BME280;5278;42.656;23.374;2023-05-11T05:53:10;94910.31;;;10.08;89.32
10462;BME280;5278;42.656;23.374;2023-05-11T05:55:39;94944.22;;;10.22;89.70
10462;BME280;5278;42.656;23.374;2023-05-11T05:58:06;94945.19;;;10.13;90.06
10462;BME280;5278;42.656;23.374;2023-05-11T06:00:33;94946.81;;;10.06;90.14
10462;BME280;5278;42.656;23.374;2023-05-11T06:03:01;94942.28;;;10.16;90.40
10462;BME280;5278;42.656;23.374;2023-05-11T06:05:28;94944.53;;;10.27;90.25
10462;BME280;5278;42.656;23.374;2023-05-11T06:07:55;94952.50;;;10.18;89.26
10462;BME280;5278;42.656;23.374;2023-05-11T06:10:23;94925.41;;;9.96;89.63
10462;BME280;5278;42.656;23.374;2023-05-11T06:12:51;94966.97;;;10.20;90.23
10462;BME280;5278;42.656;23.374;2023-05-11T06:15:18;94950.88;;;10.09;89.88
10462;BME280;5278;42.656;23.374;2023-05-11T06:17:45;94955.91;;;10.10;90.39
10462;BME280;5278;42.656;23.374;2023-05-11T06:20:12;94961.13;;;10.18;90.48
10462;BME280;5278;42.656;23.374;2023-05-11T06:22:39;94957.72;;;10.26;90.29
10462;BME280;5278;42.656;23.374;2023-05-11T06:25:07;94936.25;;;10.08;90.01
10462;BME280;5278;42.656;23.374;2023-05-11T06:27:34;94960.00;;;10.21;90.14
10462;BME280;5278;42.656;23.374;2023-05-11T06:30:03;94958.38;;;10.20;90.04
10462;BME280;5278;42.656;23.374;2023-05-11T06:32:30;94962.72;;;10.27;89.15
10462;BME280;5278;42.656;23.374;2023-05-11T06:34:58;94973.13;;;10.27;89.03
10462;BME280;5278;42.656;23.374;2023-05-11T06:37:28;94969.53;;;10.28;89.25
10462;BME280;5278;42.656;23.374;2023-05-11T06:39:55;94977.34;;;10.28;88.70
10462;BME280;5278;42.656;23.374;2023-05-11T06:42:21;94970.84;;;10.24;88.69
10462;BME280;5278;42.656;23.374;2023-05-11T06:44:49;94975.72;;;10.27;89.18
10462;BME280;5278;42.656;23.374;2023-05-11T06:47:17;94973.13;;;10.35;90.23
10462;BME280;5278;42.656;23.374;2023-05-11T06:49:44;94964.91;;;12.02;100.00
10462;BME280;5278;42.656;23.374;2023-05-11T06:52:13;94965.69;;;13.07;91.11
10462;BME280;5278;42.656;23.374;2023-05-11T06:54:39;94965.16;;;13.98;81.68
10462;BME280;5278;42.656;23.374;2023-05-11T06:57:06;94948.81;;;14.67;73.65
10462;BME280;5278;42.656;23.374;2023-05-11T06:59:33;94955.50;;;15.03;70.15
10462;BME280;5278;42.656;23.374;2023-05-11T07:02:00;94963.53;;;15.49;66.19
10462;BME280;5278;42.656;23.374;2023-05-11T07:04:29;94952.94;;;15.64;63.83
10462;BME280;5278;42.656;23.374;2023-05-11T07:06:56;94961.03;;;15.76;61.52
10462;BME280;5278;42.656;23.374;2023-05-11T07:09:23;94962.84;;;15.69;61.78
10462;BME280;5278;42.656;23.374;2023-05-11T07:11:50;94963.47;;;14.89;63.53
10462;BME280;5278;42.656;23.374;2023-05-11T07:14:18;94993.13;;;13.83;68.35
10462;BME280;5278;42.656;23.374;2023-05-11T07:16:45;94955.53;;;13.27;71.81
10462;BME280;5278;42.656;23.374;2023-05-11T07:19:12;94925.22;;;12.67;72.96
10462;BME280;5278;42.656;23.374;2023-05-11T07:21:41;94966.94;;;12.67;74.72
10462;BME280;5278;42.656;23.374;2023-05-11T07:24:07;94965.22;;;12.45;75.87
10462;BME280;5278;42.656;23.374;2023-05-11T07:26:34;94931.13;;;11.94;77.04
10462;BME280;5278;42.656;23.374;2023-05-11T07:29:01;94977.94;;;12.02;77.62
10462;BME280;5278;42.656;23.374;2023-05-11T07:31:28;94971.44;;;11.76;78.11
10462;BME280;5278;42.656;23.374;2023-05-11T07:33:56;94944.84;;;11.35;78.96
10462;BME280;5278;42.656;23.374;2023-05-11T07:36:24;94972.16;;;11.61;80.08
10462;BME280;5278;42.656;23.374;2023-05-11T07:38:52;94974.25;;;11.66;79.56
10462;BME280;5278;42.656;23.374;2023-05-11T07:41:19;94973.72;;;11.71;79.28
10462;BME280;5278;42.656;23.374;2023-05-11T07:43:51;94978.03;;;11.86;78.64
10462;BME280;5278;42.656;23.374;2023-05-11T07:46:17;94979.72;;;12.02;78.06
10462;BME280;5278;42.656;23.374;2023-05-11T07:48:44;94974.84;;;12.22;77.37
10462;BME280;5278;42.656;23.374;2023-05-11T07:51:13;94963.78;;;12.57;75.37
10462;BME280;5278;42.656;23.374;2023-05-11T07:53:40;94980.16;;;12.80;72.98
10462;BME280;5278;42.656;23.374;2023-05-11T07:56:09;94964.06;;;13.06;72.64
10462;BME280;5278;42.656;23.374;2023-05-11T07:58:36;94971.63;;;13.30;70.55
10462;BME280;5278;42.656;23.374;2023-05-11T08:01:04;94965.69;;;13.72;67.84
10462;BME280;5278;42.656;23.374;2023-05-11T08:03:31;94975.53;;;13.92;66.53
10462;BME280;5278;42.656;23.374;2023-05-11T08:05:58;94958.72;;;14.01;65.61
10462;BME280;5278;42.656;23.374;2023-05-11T08:08:26;94976.63;;;14.25;64.45
10462;BME280;5278;42.656;23.374;2023-05-11T08:10:53;94961.66;;;14.12;64.23
10462;BME280;5278;42.656;23.374;2023-05-11T08:13:23;94962.63;;;14.33;62.81
10462;BME280;5278;42.656;23.374;2023-05-11T08:15:50;94974.91;;;14.53;62.13
10462;BME280;5278;42.656;23.374;2023-05-11T08:18:17;94972.59;;;14.72;61.26
10462;BME280;5278;42.656;23.374;2023-05-11T08:20:44;94944.69;;;14.79;61.11
10462;BME280;5278;42.656;23.374;2023-05-11T08:23:11;94968.47;;;15.18;59.43
10462;BME280;5278;42.656;23.374;2023-05-11T08:25:48;94900.63;;;14.82;58.59
10462;BME280;5278;42.656;23.374;2023-05-11T08:28:15;94956.81;;;15.27;57.77
10462;BME280;5278;42.656;23.374;2023-05-11T08:30:44;94966.72;;;15.32;57.58
10462;BME280;5278;42.656;23.374;2023-05-11T08:33:12;94932.53;;;14.99;57.56
10462;BME280;5278;42.656;23.374;2023-05-11T08:35:39;94943.59;;;15.42;57.37
10462;BME280;5278;42.656;23.374;2023-05-11T08:38:06;94955.69;;;15.49;56.47
10462;BME280;5278;42.656;23.374;2023-05-11T08:40:34;94958.44;;;15.35;57.25
10462;BME280;5278;42.656;23.374;2023-05-11T08:43:03;94977.75;;;15.75;55.46
10462;BME280;5278;42.656;23.374;2023-05-11T08:45:34;94957.22;;;15.72;56.08
10462;BME280;5278;42.656;23.374;2023-05-11T08:48:04;94954.22;;;15.81;55.84
10462;BME280;5278;42.656;23.374;2023-05-11T08:50:32;94965.91;;;15.79;54.97
10462;BME280;5278;42.656;23.374;2023-05-11T08:52:59;94957.53;;;15.49;56.75
10462;BME280;5278;42.656;23.374;2023-05-11T08:55:26;94958.78;;;15.53;57.28
10462;BME280;5278;42.656;23.374;2023-05-11T08:57:55;94941.28;;;15.19;57.11
10462;BME280;5278;42.656;23.374;2023-05-11T09:00:24;94959.63;;;15.19;58.39
10462;BME280;5278;42.656;23.374;2023-05-11T09:02:51;94947.19;;;14.93;59.77
10462;BME280;5278;42.656;23.374;2023-05-11T09:05:20;94957.44;;;14.60;61.47
10462;BME280;5278;42.656;23.374;2023-05-11T09:07:49;94956.34;;;14.48;62.78
10462;BME280;5278;42.656;23.374;2023-05-11T09:10:18;94952.31;;;14.46;63.72
10462;BME280;5278;42.656;23.374;2023-05-11T09:12:45;94942.06;;;14.51;63.95
10462;BME280;5278;42.656;23.374;2023-05-11T09:15:12;94872.00;;;14.12;63.55
10462;BME280;5278;42.656;23.374;2023-05-11T09:17:39;94948.94;;;14.86;62.64
10462;BME280;5278;42.656;23.374;2023-05-11T09:20:07;94941.84;;;15.08;62.55
10462;BME280;5278;42.656;23.374;2023-05-11T09:22:40;94954.22;;;14.93;61.99
10462;BME280;5278;42.656;23.374;2023-05-11T09:25:10;94942.44;;;14.76;62.94
10462;BME280;5278;42.656;23.374;2023-05-11T09:27:40;94939.69;;;14.84;63.40
10462;BME280;5278;42.656;23.374;2023-05-11T09:30:12;94956.00;;;14.86;63.35
10462;BME280;5278;42.656;23.374;2023-05-11T09:32:46;94956.88;;;14.37;64.63
10462;BME280;5278;42.656;23.374;2023-05-11T09:35:24;94862.06;;;13.16;66.43
10462;BME280;5278;42.656;23.374;2023-05-11T09:37:59;94956.19;;;13.86;67.97
10462;BME280;5278;42.656;23.374;2023-05-11T09:40:27;94950.47;;;13.97;67.27
10462;BME280;5278;42.656;23.374;2023-05-11T09:42:54;94841.19;;;13.01;67.60
10462;BME280;5278;42.656;23.374;2023-05-11T09:45:37;94950.88;;;13.58;68.51
10462;BME280;5278;42.656;23.374;2023-05-11T09:48:05;94980.34;;;13.38;70.47
10462;BME280;5278;42.656;23.374;2023-05-11T09:50:33;94955.78;;;13.32;71.07
10462;BME280;5278;42.656;23.374;2023-05-11T09:53:02;94950.97;;;13.14;72.25
10462;BME280;5278;42.656;23.374;2023-05-11T09:55:29;94939.16;;;13.04;71.71
10462;BME280;5278;42.656;23.374;2023-05-11T09:57:57;94946.00;;;13.05;71.37
10462;BME280;5278;42.656;23.374;2023-05-11T10:00:25;94951.22;;;13.05;71.48
10462;BME280;5278;42.656;23.374;2023-05-11T10:02:59;94914.97;;;12.80;72.01
10462;BME280;5278;42.656;23.374;2023-05-11T10:05:28;94956.63;;;12.88;72.90
10462;BME280;5278;42.656;23.374;2023-05-11T10:07:57;94929.09;;;12.71;73.78
10462;BME280;5278;42.656;23.374;2023-05-11T10:10:27;94933.88;;;12.82;73.66
10462;BME280;5278;42.656;23.374;2023-05-11T10:12:56;94927.22;;;12.94;72.95
10462;BME280;5278;42.656;23.374;2023-05-11T10:15:25;94916.25;;;13.14;72.18
10462;BME280;5278;42.656;23.374;2023-05-11T10:17:53;94932.22;;;13.25;71.27
10462;BME280;5278;42.656;23.374;2023-05-11T10:20:21;94921.13;;;13.38;71.18
10462;BME280;5278;42.656;23.374;2023-05-11T10:22:50;94930.97;;;13.57;70.68
10462;BME280;5278;42.656;23.374;2023-05-11T10:25:19;94924.03;;;13.64;69.12
10462;BME280;5278;42.656;23.374;2023-05-11T10:27:50;94918.53;;;13.80;69.00
10462;BME280;5278;42.656;23.374;2023-05-11T10:30:17;94930.94;;;13.93;69.22
10462;BME280;5278;42.656;23.374;2023-05-11T10:32:44;94915.94;;;14.02;68.39
10462;BME280;5278;42.656;23.374;2023-05-11T10:35:13;94870.66;;;13.95;67.39
10462;BME280;5278;42.656;23.374;2023-05-11T10:37:40;94869.94;;;14.35;67.20
10462;BME280;5278;42.656;23.374;2023-05-11T10:40:09;94894.09;;;14.65;64.67
10462;BME280;5278;42.656;23.374;2023-05-11T10:45:50;94891.16;;;15.22;61.64
10462;BME280;5278;42.656;23.374;2023-05-11T10:48:45;94911.09;;;15.23;61.10
10462;BME280;5278;42.656;23.374;2023-05-11T10:51:29;94890.81;;;15.38;60.88
10462;BME280;5278;42.656;23.374;2023-05-11T10:54:13;94897.63;;;15.39;60.40
10462;BME280;5278;42.656;23.374;2023-05-11T10:57:07;94904.59;;;15.13;61.43
10462;BME280;5278;42.656;23.374;2023-05-11T10:59:54;94887.09;;;15.13;61.79
10462;BME280;5278;42.656;23.374;2023-05-11T11:02:35;94880.69;;;15.22;61.22
10462;BME280;5278;42.656;23.374;2023-05-11T11:05:03;94878.09;;;15.35;59.97
10462;BME280;5278;42.656;23.374;2023-05-11T11:07:55;94908.19;;;15.59;59.63
10462;BME280;5278;42.656;23.374;2023-05-11T11:10:31;94885.47;;;15.73;58.80
10462;BME280;5278;42.656;23.374;2023-05-11T11:13:04;94888.91;;;15.80;58.99
10462;BME280;5278;42.656;23.374;2023-05-11T11:16:09;94893.53;;;15.84;58.35
10462;BME280;5278;42.656;23.374;2023-05-11T11:18:38;94902.97;;;15.53;59.11
10462;BME280;5278;42.656;23.374;2023-05-11T11:21:05;94900.44;;;15.31;59.75
10462;BME280;5278;42.656;23.374;2023-05-11T11:23:43;94879.16;;;15.47;60.02
10462;BME280;5278;42.656;23.374;2023-05-11T11:26:17;94883.03;;;15.58;59.48
10462;BME280;5278;42.656;23.374;2023-05-11T11:29:06;94895.81;;;15.40;60.10
10462;BME280;5278;42.656;23.374;2023-05-11T11:31:34;94880.72;;;15.35;60.32
10462;BME280;5278;42.656;23.374;2023-05-11T11:37:10;94863.09;;;16.29;56.67
10462;BME280;5278;42.656;23.374;2023-05-11T11:39:51;94878.22;;;16.47;56.61
10462;BME280;5278;42.656;23.374;2023-05-11T11:42:34;94857.59;;;16.70;55.78
10462;BME280;5278;42.656;23.374;2023-05-11T11:45:26;94873.53;;;17.33;52.90
10462;BME280;5278;42.656;23.374;2023-05-11T11:48:13;94875.03;;;17.54;52.66
10462;BME280;5278;42.656;23.374;2023-05-11T11:50:42;94865.19;;;17.43;51.68
10462;BME280;5278;42.656;23.374;2023-05-11T11:56:38;94872.09;;;16.86;54.37
10462;BME280;5278;42.656;23.374;2023-05-11T11:59:05;94878.03;;;16.49;55.46
10462;BME280;5278;42.656;23.374;2023-05-11T12:01:37;94866.31;;;16.31;56.28
10462;BME280;5278;42.656;23.374;2023-05-11T12:07:06;94868.56;;;16.21;56.67
10462;BME280;5278;42.656;23.374;2023-05-11T12:09:34;94893.16;;;16.47;56.14
10462;BME280;5278;42.656;23.374;2023-05-11T12:12:05;94856.44;;;16.27;56.21
10462;BME280;5278;42.656;23.374;2023-05-11T12:14:33;94859.66;;;16.09;56.87
10462;BME280;5278;42.656;23.374;2023-05-11T12:17:05;94874.78;;;15.81;57.71
10462;BME280;5278;42.656;23.374;2023-05-11T12:19:38;94871.78;;;15.84;58.21
10462;BME280;5278;42.656;23.374;2023-05-11T12:22:06;94853.81;;;15.68;59.12
10462;BME280;5278;42.656;23.374;2023-05-11T12:24:35;94877.53;;;15.46;60.44
10462;BME280;5278;42.656;23.374;2023-05-11T12:27:05;94857.63;;;15.52;59.53
10462;BME280;5278;42.656;23.374;2023-05-11T12:29:32;94861.09;;;15.79;58.75
10462;BME280;5278;42.656;23.374;2023-05-11T12:31:59;94847.78;;;15.87;57.63
10462;BME280;5278;42.656;23.374;2023-05-11T12:34:26;94847.78;;;15.80;57.52
10462;BME280;5278;42.656;23.374;2023-05-11T12:36:53;94846.97;;;15.73;58.54
10462;BME280;5278;42.656;23.374;2023-05-11T12:39:22;94845.75;;;15.76;58.62
10462;BME280;5278;42.656;23.374;2023-05-11T12:41:51;94834.88;;;15.72;58.28
10462;BME280;5278;42.656;23.374;2023-05-11T12:44:21;94812.91;;;15.67;58.86
10462;BME280;5278;42.656;23.374;2023-05-11T12:46:49;94828.63;;;15.80;58.32
10462;BME280;5278;42.656;23.374;2023-05-11T12:49:19;94831.28;;;15.93;57.82
10462;BME280;5278;42.656;23.374;2023-05-11T12:51:50;94834.50;;;16.08;57.65
10462;BME280;5278;42.656;23.374;2023-05-11T12:54:28;94819.16;;;15.72;58.18
10462;BME280;5278;42.656;23.374;2023-05-11T12:56:55;94825.19;;;15.79;58.33
10462;BME280;5278;42.656;23.374;2023-05-11T12:59:29;94813.50;;;15.95;58.23
10462;BME280;5278;42.656;23.374;2023-05-11T13:02:04;94814.50;;;15.94;57.92
10462;BME280;5278;42.656;23.374;2023-05-11T13:04:32;94806.84;;;16.06;57.11
10462;BME280;5278;42.656;23.374;2023-05-11T13:06:59;94801.63;;;16.12;57.91
10462;BME280;5278;42.656;23.374;2023-05-11T13:09:27;94799.00;;;16.19;57.29
10462;BME280;5278;42.656;23.374;2023-05-11T13:12:11;94810.44;;;16.24;56.95
10462;BME280;5278;42.656;23.374;2023-05-11T13:14:40;94807.44;;;16.21;56.76
10462;BME280;5278;42.656;23.374;2023-05-11T13:17:07;94806.25;;;16.10;56.69
10462;BME280;5278;42.656;23.374;2023-05-11T13:19:34;94798.78;;;16.07;57.22
10462;BME280;5278;42.656;23.374;2023-05-11T13:22:04;94817.75;;;16.03;57.86
10462;BME280;5278;42.656;23.374;2023-05-11T13:24:32;94813.13;;;15.98;58.05
10462;BME280;5278;42.656;23.374;2023-05-11T13:26:59;94810.50;;;15.91;58.56